sensor_id;sensor_type;location;lat;lon;timestamp;P1;P2;P0
69123;PMS5003;56232;53.384;-2.732;2022-10-31T00:00:44;4;4;
69123;PMS5003;56232;53.384;-2.732;2022-10-31T00:03:10;6;5;
69123;PMS5003;56232;53.384;-2.732;2022-10-31T00:05:36;5;4;
69123;PMS5003;56232;53.384;-2.732;2022-10-31T00:08:01;3;3;
69123;PMS5003;56232;53.384;-2.732;2022-10-31T00:10:27;3;3;
69123;PMS5003;56232;53.384;-2.732;2022-10-31T00:12:53;3;3;
69123;PMS5003;56232;53.384;-2.732;2022-10-31T00:15:18;5;4;
69123;PMS5003;56232;53.384;-2.732;2022-10-31T00:17:44;7;6;
69123;PMS5003;56232;53.384;-2.732;2022-10-31T00:20:09;7;4;
69123;PMS5003;56232;53.384;-2.732;2022-10-31T00:22:35;6;5;
69123;PMS5003;56232;53.384;-2.732;2022-10-31T00:25:01;6;5;
69123;PMS5003;56232;53.384;-2.732;2022-10-31T00:27:26;4;4;
69123;PMS5003;56232;53.384;-2.732;2022-10-31T00:29:52;4;4;
69123;PMS5003;56232;53.384;-2.732;2022-10-31T00:32:17;3;3;
69123;PMS5003;56232;53.384;-2.732;2022-10-31T00:34:43;2;2;
69123;PMS5003;56232;53.384;-2.732;2022-10-31T00:37:08;6;4;
69123;PMS5003;56232;53.384;-2.732;2022-10-31T00:39:34;5;5;
69123;PMS5003;56232;53.384;-2.732;2022-10-31T00:42:00;4;3;
69123;PMS5003;56232;53.384;-2.732;2022-10-31T00:44:25;5;4;
69123;PMS5003;56232;53.384;-2.732;2022-10-31T00:46:51;6;5;
69123;PMS5003;56232;53.384;-2.732;2022-10-31T00:49:16;6;5;
69123;PMS5003;56232;53.384;-2.732;2022-10-31T00:51:42;5;4;
69123;PMS5003;56232;53.384;-2.732;2022-10-31T00:54:08;4;3;
69123;PMS5003;56232;53.384;-2.732;2022-10-31T00:56:33;6;5;
69123;PMS5003;56232;53.384;-2.732;2022-10-31T00:58:59;6;5;
69123;PMS5003;56232;53.384;-2.732;2022-10-31T01:01:24;15;14;
69123;PMS5003;56232;53.384;-2.732;2022-10-31T01:03:50;21;20;
69123;PMS5003;56232;53.384;-2.732;2022-10-31T01:06:15;22;21;
69123;PMS5003;56232;53.384;-2.732;2022-10-31T01:08:41;18;18;
69123;PMS5003;56232;53.384;-2.732;2022-10-31T01:11:07;14;13;
69123;PMS5003;56232;53.384;-2.732;2022-10-31T01:13:32;13;12;
69123;PMS5003;56232;53.384;-2.732;2022-10-31T01:15:58;11;10;
69123;PMS5003;56232;53.384;-2.732;2022-10-31T01:18:22;8;6;
69123;PMS5003;56232;53.384;-2.732;2022-10-31T01:23:13;5;4;
69123;PMS5003;56232;53.384;-2.732;2022-10-31T01:25:39;5;5;
69123;PMS5003;56232;53.384;-2.732;2022-10-31T01:28:05;5;5;
69123;PMS5003;56232;53.384;-2.732;2022-10-31T01:30:30;6;5;
69123;PMS5003;56232;53.384;-2.732;2022-10-31T01:32:56;6;6;
69123;PMS5003;56232;53.384;-2.732;2022-10-31T01:35:22;6;5;
69123;PMS5003;56232;53.384;-2.732;2022-10-31T01:37:47;4;4;
69123;PMS5003;56232;53.384;-2.732;2022-10-31T01:40:12;10;7;
69123;PMS5003;56232;53.384;-2.732;2022-10-31T01:42:38;8;5;
69123;PMS5003;56232;53.384;-2.732;2022-10-31T01:45:04;9;7;
69123;PMS5003;56232;53.384;-2.732;2022-10-31T01:47:32;4;4;
69123;PMS5003;56232;53.384;-2.732;2022-10-31T01:49:56;8;8;
69123;PMS5003;56232;53.384;-2.732;2022-10-31T01:52:21;6;6;
69123;PMS5003;56232;53.384;-2.732;2022-10-31T01:54:48;7;6;
69123;PMS5003;56232;53.384;-2.732;2022-10-31T01:57:12;16;15;
69123;PMS5003;56232;53.384;-2.732;2022-10-31T01:59:39;42;41;
69123;PMS5003;56232;53.384;-2.732;2022-10-31T02:02:03;49;48;
69123;PMS5003;56232;53.384;-2.732;2022-10-31T02:04:28;34;33;
69123;PMS5003;56232;53.384;-2.732;2022-10-31T02:06:55;15;14;
69123;PMS5003;56232;53.384;-2.732;2022-10-31T02:09:19;10;10;
69123;PMS5003;56232;53.384;-2.732;2022-10-31T02:11:44;17;15;
69123;PMS5003;56232;53.384;-2.732;2022-10-31T02:14:10;28;27;
69123;PMS5003;56232;53.384;-2.732;2022-10-31T02:16:35;42;39;
69123;PMS5003;56232;53.384;-2.732;2022-10-31T02:19:00;48;45;
69123;PMS5003;56232;53.384;-2.732;2022-10-31T02:21:28;38;36;
69123;PMS5003;56232;53.384;-2.732;2022-10-31T02:23:58;29;27;
69123;PMS5003;56232;53.384;-2.732;2022-10-31T02:26:23;15;15;
69123;PMS5003;56232;53.384;-2.732;2022-10-31T02:28:49;9;8;
69123;PMS5003;56232;53.384;-2.732;2022-10-31T02:31:13;4;4;
69123;PMS5003;56232;53.384;-2.732;2022-10-31T02:33:35;6;5;
69123;PMS5003;56232;53.384;-2.732;2022-10-31T02:36:02;11;8;
69123;PMS5003;56232;53.384;-2.732;2022-10-31T02:38:29;8;5;
69123;PMS5003;56232;53.384;-2.732;2022-10-31T02:40:54;6;5;
69123;PMS5003;56232;53.384;-2.732;2022-10-31T02:43:19;16;13;
69123;PMS5003;56232;53.384;-2.732;2022-10-31T02:45:44;39;38;
69123;PMS5003;56232;53.384;-2.732;2022-10-31T02:48:09;34;30;
69123;PMS5003;56232;53.384;-2.732;2022-10-31T02:50:34;18;17;
69123;PMS5003;56232;53.384;-2.732;2022-10-31T02:52:59;11;10;
69123;PMS5003;56232;53.384;-2.732;2022-10-31T02:57:49;11;10;
69123;PMS5003;56232;53.384;-2.732;2022-10-31T03:00:15;9;8;
69123;PMS5003;56232;53.384;-2.732;2022-10-31T03:02:43;17;14;
69123;PMS5003;56232;53.384;-2.732;2022-10-31T03:05:11;9;8;
69123;PMS5003;56232;53.384;-2.732;2022-10-31T03:07:33;11;10;
69123;PMS5003;56232;53.384;-2.732;2022-10-31T03:09:59;10;10;
69123;PMS5003;56232;53.384;-2.732;2022-10-31T03:12:22;16;15;
69123;PMS5003;56232;53.384;-2.732;2022-10-31T03:14:48;19;14;
69123;PMS5003;56232;53.384;-2.732;2022-10-31T03:17:13;31;27;
69123;PMS5003;56232;53.384;-2.732;2022-10-31T03:19:40;36;32;
69123;PMS5003;56232;53.384;-2.732;2022-10-31T03:22:04;36;31;
69123;PMS5003;56232;53.384;-2.732;2022-10-31T03:24:29;44;41;
69123;PMS5003;56232;53.384;-2.732;2022-10-31T03:26:54;47;44;
69123;PMS5003;56232;53.384;-2.732;2022-10-31T03:29:20;40;36;
69123;PMS5003;56232;53.384;-2.732;2022-10-31T03:31:46;27;25;
69123;PMS5003;56232;53.384;-2.732;2022-10-31T03:34:10;18;16;
69123;PMS5003;56232;53.384;-2.732;2022-10-31T03:36:36;12;9;
69123;PMS5003;56232;53.384;-2.732;2022-10-31T03:39:02;7;6;
69123;PMS5003;56232;53.384;-2.732;2022-10-31T03:41:27;9;6;
69123;PMS5003;56232;53.384;-2.732;2022-10-31T03:43:54;7;7;
69123;PMS5003;56232;53.384;-2.732;2022-10-31T03:46:17;10;7;
69123;PMS5003;56232;53.384;-2.732;2022-10-31T03:48:43;9;7;
69123;PMS5003;56232;53.384;-2.732;2022-10-31T03:51:11;10;8;
69123;PMS5003;56232;53.384;-2.732;2022-10-31T03:53:36;6;6;
69123;PMS5003;56232;53.384;-2.732;2022-10-31T03:56:02;5;5;
69123;PMS5003;56232;53.384;-2.732;2022-10-31T03:58:26;8;7;
69123;PMS5003;56232;53.384;-2.732;2022-10-31T04:00:52;6;6;
69123;PMS5003;56232;53.384;-2.732;2022-10-31T04:03:19;11;7;
69123;PMS5003;56232;53.384;-2.732;2022-10-31T04:05:43;9;8;
69123;PMS5003;56232;53.384;-2.732;2022-10-31T04:08:09;8;6;
69123;PMS5003;56232;53.384;-2.732;2022-10-31T04:10:34;6;5;
69123;PMS5003;56232;53.384;-2.732;2022-10-31T04:13:01;6;6;
69123;PMS5003;56232;53.384;-2.732;2022-10-31T04:15:25;8;7;
69123;PMS5003;56232;53.384;-2.732;2022-10-31T04:17:52;7;5;
69123;PMS5003;56232;53.384;-2.732;2022-10-31T04:20:17;5;5;
69123;PMS5003;56232;53.384;-2.732;2022-10-31T04:22:42;8;5;
69123;PMS5003;56232;53.384;-2.732;2022-10-31T04:25:08;6;5;
69123;PMS5003;56232;53.384;-2.732;2022-10-31T04:27:34;10;8;
69123;PMS5003;56232;53.384;-2.732;2022-10-31T04:29:59;11;9;
69123;PMS5003;56232;53.384;-2.732;2022-10-31T04:32:25;10;7;
69123;PMS5003;56232;53.384;-2.732;2022-10-31T04:34:51;4;4;
69123;PMS5003;56232;53.384;-2.732;2022-10-31T04:37:15;9;7;
69123;PMS5003;56232;53.384;-2.732;2022-10-31T04:39:41;8;6;
69123;PMS5003;56232;53.384;-2.732;2022-10-31T04:42:07;7;6;
69123;PMS5003;56232;53.384;-2.732;2022-10-31T04:44:33;8;6;
69123;PMS5003;56232;53.384;-2.732;2022-10-31T04:46:57;6;6;
69123;PMS5003;56232;53.384;-2.732;2022-10-31T04:49:23;7;6;
69123;PMS5003;56232;53.384;-2.732;2022-10-31T04:51:49;5;4;
69123;PMS5003;56232;53.384;-2.732;2022-10-31T04:54:14;7;5;
69123;PMS5003;56232;53.384;-2.732;2022-10-31T04:56:40;6;5;
69123;PMS5003;56232;53.384;-2.732;2022-10-31T04:59:05;9;7;
69123;PMS5003;56232;53.384;-2.732;2022-10-31T05:01:31;8;6;
69123;PMS5003;56232;53.384;-2.732;2022-10-31T05:03:56;7;6;
69123;PMS5003;56232;53.384;-2.732;2022-10-31T05:06:22;8;8;
69123;PMS5003;56232;53.384;-2.732;2022-10-31T05:08:47;11;9;
69123;PMS5003;56232;53.384;-2.732;2022-10-31T05:11:13;8;7;
69123;PMS5003;56232;53.384;-2.732;2022-10-31T05:13:39;8;6;
69123;PMS5003;56232;53.384;-2.732;2022-10-31T05:16:05;9;8;
69123;PMS5003;56232;53.384;-2.732;2022-10-31T05:18:30;7;6;
69123;PMS5003;56232;53.384;-2.732;2022-10-31T05:20:55;5;4;
69123;PMS5003;56232;53.384;-2.732;2022-10-31T05:23:21;7;4;
69123;PMS5003;56232;53.384;-2.732;2022-10-31T05:25:46;8;6;
69123;PMS5003;56232;53.384;-2.732;2022-10-31T05:28:12;7;4;
69123;PMS5003;56232;53.384;-2.732;2022-10-31T05:30:38;6;4;
69123;PMS5003;56232;53.384;-2.732;2022-10-31T05:33:02;10;6;
69123;PMS5003;56232;53.384;-2.732;2022-10-31T05:35:29;7;6;
69123;PMS5003;56232;53.384;-2.732;2022-10-31T05:37:54;10;8;
69123;PMS5003;56232;53.384;-2.732;2022-10-31T05:40:19;9;5;
69123;PMS5003;56232;53.384;-2.732;2022-10-31T05:42:44;8;6;
69123;PMS5003;56232;53.384;-2.732;2022-10-31T05:45:11;7;5;
69123;PMS5003;56232;53.384;-2.732;2022-10-31T05:47:35;7;5;
69123;PMS5003;56232;53.384;-2.732;2022-10-31T05:50:00;8;8;
69123;PMS5003;56232;53.384;-2.732;2022-10-31T05:52:26;7;4;
69123;PMS5003;56232;53.384;-2.732;2022-10-31T05:54:52;7;5;
69123;PMS5003;56232;53.384;-2.732;2022-10-31T05:57:17;14;6;
69123;PMS5003;56232;53.384;-2.732;2022-10-31T05:59:43;8;6;
69123;PMS5003;56232;53.384;-2.732;2022-10-31T06:02:08;12;8;
69123;PMS5003;56232;53.384;-2.732;2022-10-31T06:04:34;7;7;
69123;PMS5003;56232;53.384;-2.732;2022-10-31T06:06:59;10;8;
69123;PMS5003;56232;53.384;-2.732;2022-10-31T06:09:24;8;6;
69123;PMS5003;56232;53.384;-2.732;2022-10-31T06:11:50;8;6;
69123;PMS5003;56232;53.384;-2.732;2022-10-31T06:14:16;12;6;
69123;PMS5003;56232;53.384;-2.732;2022-10-31T06:16:41;9;6;
69123;PMS5003;56232;53.384;-2.732;2022-10-31T06:19:06;9;8;
69123;PMS5003;56232;53.384;-2.732;2022-10-31T06:21:32;9;8;
69123;PMS5003;56232;53.384;-2.732;2022-10-31T06:23:57;19;15;
69123;PMS5003;56232;53.384;-2.732;2022-10-31T06:26:22;28;25;
69123;PMS5003;56232;53.384;-2.732;2022-10-31T06:28:47;31;29;
69123;PMS5003;56232;53.384;-2.732;2022-10-31T06:31:13;39;36;
69123;PMS5003;56232;53.384;-2.732;2022-10-31T06:33:40;31;26;
69123;PMS5003;56232;53.384;-2.732;2022-10-31T06:36:05;19;17;
69123;PMS5003;56232;53.384;-2.732;2022-10-31T06:38:30;25;23;
69123;PMS5003;56232;53.384;-2.732;2022-10-31T06:40:55;22;21;
69123;PMS5003;56232;53.384;-2.732;2022-10-31T06:43:21;17;16;
69123;PMS5003;56232;53.384;-2.732;2022-10-31T06:45:46;12;11;
69123;PMS5003;56232;53.384;-2.732;2022-10-31T06:48:12;7;5;
69123;PMS5003;56232;53.384;-2.732;2022-10-31T06:50:37;7;5;
69123;PMS5003;56232;53.384;-2.732;2022-10-31T06:53:03;15;11;
69123;PMS5003;56232;53.384;-2.732;2022-10-31T06:55:28;15;11;
69123;PMS5003;56232;53.384;-2.732;2022-10-31T06:57:54;9;8;
69123;PMS5003;56232;53.384;-2.732;2022-10-31T07:00:19;12;11;
69123;PMS5003;56232;53.384;-2.732;2022-10-31T07:05:09;8;7;
69123;PMS5003;56232;53.384;-2.732;2022-10-31T07:07:35;21;20;
69123;PMS5003;56232;53.384;-2.732;2022-10-31T07:10:01;29;27;
69123;PMS5003;56232;53.384;-2.732;2022-10-31T07:12:26;28;27;
69123;PMS5003;56232;53.384;-2.732;2022-10-31T07:14:53;30;29;
69123;PMS5003;56232;53.384;-2.732;2022-10-31T07:17:18;29;28;
69123;PMS5003;56232;53.384;-2.732;2022-10-31T07:19:43;26;24;
69123;PMS5003;56232;53.384;-2.732;2022-10-31T07:22:08;15;13;
69123;PMS5003;56232;53.384;-2.732;2022-10-31T07:24:33;16;15;
69123;PMS5003;56232;53.384;-2.732;2022-10-31T07:26:59;19;17;
69123;PMS5003;56232;53.384;-2.732;2022-10-31T07:29:24;13;12;
69123;PMS5003;56232;53.384;-2.732;2022-10-31T07:31:50;10;10;
69123;PMS5003;56232;53.384;-2.732;2022-10-31T07:34:16;24;19;
69123;PMS5003;56232;53.384;-2.732;2022-10-31T07:36:41;17;12;
69123;PMS5003;56232;53.384;-2.732;2022-10-31T07:39:07;10;8;
69123;PMS5003;56232;53.384;-2.732;2022-10-31T07:41:32;6;6;
69123;PMS5003;56232;53.384;-2.732;2022-10-31T07:43:58;7;6;
69123;PMS5003;56232;53.384;-2.732;2022-10-31T07:46:23;10;6;
69123;PMS5003;56232;53.384;-2.732;2022-10-31T07:48:49;7;6;
69123;PMS5003;56232;53.384;-2.732;2022-10-31T07:51:14;12;8;
69123;PMS5003;56232;53.384;-2.732;2022-10-31T07:53:40;17;14;
69123;PMS5003;56232;53.384;-2.732;2022-10-31T07:56:06;10;9;
69123;PMS5003;56232;53.384;-2.732;2022-10-31T07:58:31;14;11;
69123;PMS5003;56232;53.384;-2.732;2022-10-31T08:00:57;11;9;
69123;PMS5003;56232;53.384;-2.732;2022-10-31T08:03:22;7;6;
69123;PMS5003;56232;53.384;-2.732;2022-10-31T08:05:47;8;7;
69123;PMS5003;56232;53.384;-2.732;2022-10-31T08:08:13;19;13;
69123;PMS5003;56232;53.384;-2.732;2022-10-31T08:10:38;15;14;
69123;PMS5003;56232;53.384;-2.732;2022-10-31T08:13:04;12;10;
69123;PMS5003;56232;53.384;-2.732;2022-10-31T08:15:29;10;9;
69123;PMS5003;56232;53.384;-2.732;2022-10-31T08:17:55;13;10;
69123;PMS5003;56232;53.384;-2.732;2022-10-31T08:20:20;11;10;
69123;PMS5003;56232;53.384;-2.732;2022-10-31T08:25:12;12;10;
69123;PMS5003;56232;53.384;-2.732;2022-10-31T08:27:37;14;10;
69123;PMS5003;56232;53.384;-2.732;2022-10-31T08:30:03;6;5;
69123;PMS5003;56232;53.384;-2.732;2022-10-31T08:32:28;9;6;
69123;PMS5003;56232;53.384;-2.732;2022-10-31T08:34:54;6;5;
69123;PMS5003;56232;53.384;-2.732;2022-10-31T08:37:19;6;5;
69123;PMS5003;56232;53.384;-2.732;2022-10-31T08:39:45;8;7;
69123;PMS5003;56232;53.384;-2.732;2022-10-31T08:42:11;5;4;
69123;PMS5003;56232;53.384;-2.732;2022-10-31T08:44:36;6;5;
69123;PMS5003;56232;53.384;-2.732;2022-10-31T08:47:02;6;6;
69123;PMS5003;56232;53.384;-2.732;2022-10-31T08:49:28;6;5;
69123;PMS5003;56232;53.384;-2.732;2022-10-31T08:51:54;9;8;
69123;PMS5003;56232;53.384;-2.732;2022-10-31T08:54:19;12;10;
69123;PMS5003;56232;53.384;-2.732;2022-10-31T08:56:44;7;7;
69123;PMS5003;56232;53.384;-2.732;2022-10-31T08:59:10;17;12;
69123;PMS5003;56232;53.384;-2.732;2022-10-31T09:01:35;10;5;
69123;PMS5003;56232;53.384;-2.732;2022-10-31T09:04:01;5;5;
69123;PMS5003;56232;53.384;-2.732;2022-10-31T09:06:26;5;5;
69123;PMS5003;56232;53.384;-2.732;2022-10-31T09:08:52;10;9;
69123;PMS5003;56232;53.384;-2.732;2022-10-31T09:11:17;22;19;
69123;PMS5003;56232;53.384;-2.732;2022-10-31T09:13:43;18;16;
69123;PMS5003;56232;53.384;-2.732;2022-10-31T09:16:08;14;13;
69123;PMS5003;56232;53.384;-2.732;2022-10-31T09:18:33;15;14;
69123;PMS5003;56232;53.384;-2.732;2022-10-31T09:20:59;8;6;
69123;PMS5003;56232;53.384;-2.732;2022-10-31T09:23:25;8;6;
69123;PMS5003;56232;53.384;-2.732;2022-10-31T09:25:51;8;5;
69123;PMS5003;56232;53.384;-2.732;2022-10-31T09:28:17;4;4;
69123;PMS5003;56232;53.384;-2.732;2022-10-31T09:30:41;7;6;
69123;PMS5003;56232;53.384;-2.732;2022-10-31T09:33:08;4;4;
69123;PMS5003;56232;53.384;-2.732;2022-10-31T09:35:32;6;6;
69123;PMS5003;56232;53.384;-2.732;2022-10-31T09:37:58;9;9;
69123;PMS5003;56232;53.384;-2.732;2022-10-31T09:40:24;11;11;
69123;PMS5003;56232;53.384;-2.732;2022-10-31T09:42:51;11;11;
69123;PMS5003;56232;53.384;-2.732;2022-10-31T09:45:15;13;11;
69123;PMS5003;56232;53.384;-2.732;2022-10-31T09:47:43;13;11;
69123;PMS5003;56232;53.384;-2.732;2022-10-31T09:50:10;11;9;
69123;PMS5003;56232;53.384;-2.732;2022-10-31T09:52:32;10;8;
69123;PMS5003;56232;53.384;-2.732;2022-10-31T09:54:57;13;11;
69123;PMS5003;56232;53.384;-2.732;2022-10-31T09:57:23;7;7;
69123;PMS5003;56232;53.384;-2.732;2022-10-31T09:59:48;5;5;
69123;PMS5003;56232;53.384;-2.732;2022-10-31T10:02:14;7;6;
69123;PMS5003;56232;53.384;-2.732;2022-10-31T10:04:40;4;3;
69123;PMS5003;56232;53.384;-2.732;2022-10-31T10:07:11;7;4;
69123;PMS5003;56232;53.384;-2.732;2022-10-31T10:09:30;4;3;
69123;PMS5003;56232;53.384;-2.732;2022-10-31T10:11:58;6;4;
69123;PMS5003;56232;53.384;-2.732;2022-10-31T10:14:28;6;5;
69123;PMS5003;56232;53.384;-2.732;2022-10-31T10:16:51;6;6;
69123;PMS5003;56232;53.384;-2.732;2022-10-31T10:19:17;7;4;
69123;PMS5003;56232;53.384;-2.732;2022-10-31T10:21:39;4;4;
69123;PMS5003;56232;53.384;-2.732;2022-10-31T10:24:08;5;4;
69123;PMS5003;56232;53.384;-2.732;2022-10-31T10:26:30;3;3;
69123;PMS5003;56232;53.384;-2.732;2022-10-31T10:28:56;5;4;
69123;PMS5003;56232;53.384;-2.732;2022-10-31T10:31:21;6;5;
69123;PMS5003;56232;53.384;-2.732;2022-10-31T10:33:47;3;3;
69123;PMS5003;56232;53.384;-2.732;2022-10-31T10:36:12;5;5;
69123;PMS5003;56232;53.384;-2.732;2022-10-31T10:38:38;5;4;
69123;PMS5003;56232;53.384;-2.732;2022-10-31T10:41:03;3;3;
69123;PMS5003;56232;53.384;-2.732;2022-10-31T10:43:29;3;3;
69123;PMS5003;56232;53.384;-2.732;2022-10-31T10:45:57;3;3;
69123;PMS5003;56232;53.384;-2.732;2022-10-31T10:48:27;5;3;
69123;PMS5003;56232;53.384;-2.732;2022-10-31T10:50:46;3;3;
69123;PMS5003;56232;53.384;-2.732;2022-10-31T10:53:12;5;4;
69123;PMS5003;56232;53.384;-2.732;2022-10-31T10:55:36;6;5;
69123;PMS5003;56232;53.384;-2.732;2022-10-31T10:58:02;6;5;
69123;PMS5003;56232;53.384;-2.732;2022-10-31T11:00:27;4;4;
69123;PMS5003;56232;53.384;-2.732;2022-10-31T11:02:53;8;6;
69123;PMS5003;56232;53.384;-2.732;2022-10-31T11:05:21;4;3;
69123;PMS5003;56232;53.384;-2.732;2022-10-31T11:07:43;5;4;
69123;PMS5003;56232;53.384;-2.732;2022-10-31T11:10:12;7;6;
69123;PMS5003;56232;53.384;-2.732;2022-10-31T11:12:35;5;4;
69123;PMS5003;56232;53.384;-2.732;2022-10-31T11:15:02;6;4;
69123;PMS5003;56232;53.384;-2.732;2022-10-31T11:17:27;6;5;
69123;PMS5003;56232;53.384;-2.732;2022-10-31T11:22:17;6;5;
69123;PMS5003;56232;53.384;-2.732;2022-10-31T11:24:42;4;4;
69123;PMS5003;56232;53.384;-2.732;2022-10-31T11:27:12;9;8;
69123;PMS5003;56232;53.384;-2.732;2022-10-31T11:29:33;9;8;
69123;PMS5003;56232;53.384;-2.732;2022-10-31T11:31:59;10;8;
69123;PMS5003;56232;53.384;-2.732;2022-10-31T11:34:27;7;6;
69123;PMS5003;56232;53.384;-2.732;2022-10-31T11:36:49;4;4;
69123;PMS5003;56232;53.384;-2.732;2022-10-31T11:39:16;4;3;
69123;PMS5003;56232;53.384;-2.732;2022-10-31T11:41:41;5;5;
69123;PMS5003;56232;53.384;-2.732;2022-10-31T11:44:10;6;5;
69123;PMS5003;56232;53.384;-2.732;2022-10-31T11:46:33;5;5;
69123;PMS5003;56232;53.384;-2.732;2022-10-31T11:48:58;4;4;
69123;PMS5003;56232;53.384;-2.732;2022-10-31T11:51:24;4;4;
69123;PMS5003;56232;53.384;-2.732;2022-10-31T11:53:50;6;4;
69123;PMS5003;56232;53.384;-2.732;2022-10-31T11:56:15;4;4;
69123;PMS5003;56232;53.384;-2.732;2022-10-31T11:58:40;3;3;
69123;PMS5003;56232;53.384;-2.732;2022-10-31T12:01:08;5;3;
69123;PMS5003;56232;53.384;-2.732;2022-10-31T12:03:38;5;4;
69123;PMS5003;56232;53.384;-2.732;2022-10-31T12:05:58;5;4;
69123;PMS5003;56232;53.384;-2.732;2022-10-31T12:08:23;6;5;
69123;PMS5003;56232;53.384;-2.732;2022-10-31T12:10:51;5;3;
69123;PMS5003;56232;53.384;-2.732;2022-10-31T12:13:18;5;4;
69123;PMS5003;56232;53.384;-2.732;2022-10-31T12:15:40;6;4;
69123;PMS5003;56232;53.384;-2.732;2022-10-31T12:20:33;5;5;
69123;PMS5003;56232;53.384;-2.732;2022-10-31T12:22:58;5;4;
69123;PMS5003;56232;53.384;-2.732;2022-10-31T12:25:25;6;5;
69123;PMS5003;56232;53.384;-2.732;2022-10-31T12:27:52;6;5;
69123;PMS5003;56232;53.384;-2.732;2022-10-31T12:30:14;3;2;
69123;PMS5003;56232;53.384;-2.732;2022-10-31T12:32:40;6;4;
69123;PMS5003;56232;53.384;-2.732;2022-10-31T12:35:09;5;3;
69123;PMS5003;56232;53.384;-2.732;2022-10-31T12:37:33;4;3;
69123;PMS5003;56232;53.384;-2.732;2022-10-31T12:39:56;4;4;
69123;PMS5003;56232;53.384;-2.732;2022-10-31T12:42:22;3;3;
69123;PMS5003;56232;53.384;-2.732;2022-10-31T12:44:52;8;7;
69123;PMS5003;56232;53.384;-2.732;2022-10-31T12:49:42;5;5;
69123;PMS5003;56232;53.384;-2.732;2022-10-31T12:52:06;5;5;
69123;PMS5003;56232;53.384;-2.732;2022-10-31T12:54:32;3;3;
69123;PMS5003;56232;53.384;-2.732;2022-10-31T12:56:55;5;5;
69123;PMS5003;56232;53.384;-2.732;2022-10-31T12:59:21;5;5;
69123;PMS5003;56232;53.384;-2.732;2022-10-31T13:01:46;8;5;
69123;PMS5003;56232;53.384;-2.732;2022-10-31T13:09:07;5;4;
69123;PMS5003;56232;53.384;-2.732;2022-10-31T13:11:28;7;6;
69123;PMS5003;56232;53.384;-2.732;2022-10-31T13:13:55;4;4;
69123;PMS5003;56232;53.384;-2.732;2022-10-31T13:16:19;4;3;
69123;PMS5003;56232;53.384;-2.732;2022-10-31T13:18:44;8;4;
69123;PMS5003;56232;53.384;-2.732;2022-10-31T13:21:11;4;3;
69123;PMS5003;56232;53.384;-2.732;2022-10-31T13:23:35;6;4;
69123;PMS5003;56232;53.384;-2.732;2022-10-31T13:26:01;5;4;
69123;PMS5003;56232;53.384;-2.732;2022-10-31T13:28:28;4;4;
69123;PMS5003;56232;53.384;-2.732;2022-10-31T13:30:51;5;4;
69123;PMS5003;56232;53.384;-2.732;2022-10-31T13:33:17;3;3;
69123;PMS5003;56232;53.384;-2.732;2022-10-31T13:35:44;4;4;
69123;PMS5003;56232;53.384;-2.732;2022-10-31T13:38:10;3;3;
69123;PMS5003;56232;53.384;-2.732;2022-10-31T13:40:35;6;4;
69123;PMS5003;56232;53.384;-2.732;2022-10-31T13:42:59;6;5;
69123;PMS5003;56232;53.384;-2.732;2022-10-31T13:45:24;5;3;
69123;PMS5003;56232;53.384;-2.732;2022-10-31T13:50:19;7;6;
69123;PMS5003;56232;53.384;-2.732;2022-10-31T13:52:40;7;5;
69123;PMS5003;56232;53.384;-2.732;2022-10-31T13:55:07;4;4;
69123;PMS5003;56232;53.384;-2.732;2022-10-31T13:57:32;5;4;
69123;PMS5003;56232;53.384;-2.732;2022-10-31T13:59:58;8;7;
69123;PMS5003;56232;53.384;-2.732;2022-10-31T14:02:25;6;6;
69123;PMS5003;56232;53.384;-2.732;2022-10-31T14:04:48;5;5;
69123;PMS5003;56232;53.384;-2.732;2022-10-31T14:07:14;7;6;
69123;PMS5003;56232;53.384;-2.732;2022-10-31T14:09:41;5;3;
69123;PMS5003;56232;53.384;-2.732;2022-10-31T14:12:06;4;4;
69123;PMS5003;56232;53.384;-2.732;2022-10-31T14:14:32;5;4;
69123;PMS5003;56232;53.384;-2.732;2022-10-31T14:16:56;6;5;
69123;PMS5003;56232;53.384;-2.732;2022-10-31T14:19:21;7;5;
69123;PMS5003;56232;53.384;-2.732;2022-10-31T14:21:47;11;7;
69123;PMS5003;56232;53.384;-2.732;2022-10-31T14:24:14;6;6;
69123;PMS5003;56232;53.384;-2.732;2022-10-31T14:26:37;8;8;
69123;PMS5003;56232;53.384;-2.732;2022-10-31T14:31:30;10;7;
69123;PMS5003;56232;53.384;-2.732;2022-10-31T14:33:54;8;7;
69123;PMS5003;56232;53.384;-2.732;2022-10-31T14:36:22;7;6;
69123;PMS5003;56232;53.384;-2.732;2022-10-31T14:38:49;5;5;
69123;PMS5003;56232;53.384;-2.732;2022-10-31T14:41:15;6;4;
69123;PMS5003;56232;53.384;-2.732;2022-10-31T14:43:41;7;5;
69123;PMS5003;56232;53.384;-2.732;2022-10-31T14:46:03;7;5;
69123;PMS5003;56232;53.384;-2.732;2022-10-31T14:48:33;4;4;
69123;PMS5003;56232;53.384;-2.732;2022-10-31T14:50:54;5;5;
69123;PMS5003;56232;53.384;-2.732;2022-10-31T14:53:19;6;5;
69123;PMS5003;56232;53.384;-2.732;2022-10-31T14:55:45;7;6;
69123;PMS5003;56232;53.384;-2.732;2022-10-31T14:58:09;6;4;
69123;PMS5003;56232;53.384;-2.732;2022-10-31T15:00:35;7;5;
69123;PMS5003;56232;53.384;-2.732;2022-10-31T15:03:04;7;7;
69123;PMS5003;56232;53.384;-2.732;2022-10-31T15:05:26;4;3;
69123;PMS5003;56232;53.384;-2.732;2022-10-31T15:07:53;5;3;
69123;PMS5003;56232;53.384;-2.732;2022-10-31T15:10:19;8;7;
69123;PMS5003;56232;53.384;-2.732;2022-10-31T15:12:43;7;6;
69123;PMS5003;56232;53.384;-2.732;2022-10-31T15:15:12;6;6;
69123;PMS5003;56232;53.384;-2.732;2022-10-31T15:17:34;6;6;
69123;PMS5003;56232;53.384;-2.732;2022-10-31T15:19:59;7;5;
69123;PMS5003;56232;53.384;-2.732;2022-10-31T15:22:24;4;4;
69123;PMS5003;56232;53.384;-2.732;2022-10-31T15:24:50;5;4;
69123;PMS5003;56232;53.384;-2.732;2022-10-31T15:27:16;9;7;
69123;PMS5003;56232;53.384;-2.732;2022-10-31T15:34:34;7;6;
69123;PMS5003;56232;53.384;-2.732;2022-10-31T15:36:58;7;7;
69123;PMS5003;56232;53.384;-2.732;2022-10-31T15:39:23;5;5;
69123;PMS5003;56232;53.384;-2.732;2022-10-31T15:41:49;6;6;
69123;PMS5003;56232;53.384;-2.732;2022-10-31T15:44:15;8;7;
69123;PMS5003;56232;53.384;-2.732;2022-10-31T15:46:40;6;6;
69123;PMS5003;56232;53.384;-2.732;2022-10-31T15:49:10;9;8;
69123;PMS5003;56232;53.384;-2.732;2022-10-31T15:51:32;8;7;
69123;PMS5003;56232;53.384;-2.732;2022-10-31T15:53:56;10;8;
69123;PMS5003;56232;53.384;-2.732;2022-10-31T15:56:24;5;5;
69123;PMS5003;56232;53.384;-2.732;2022-10-31T15:58:48;7;6;
69123;PMS5003;56232;53.384;-2.732;2022-10-31T16:01:19;6;6;
69123;PMS5003;56232;53.384;-2.732;2022-10-31T16:03:40;6;5;
69123;PMS5003;56232;53.384;-2.732;2022-10-31T16:06:05;5;5;
69123;PMS5003;56232;53.384;-2.732;2022-10-31T16:08:32;9;9;
69123;PMS5003;56232;53.384;-2.732;2022-10-31T16:10:56;8;8;
69123;PMS5003;56232;53.384;-2.732;2022-10-31T16:13:23;7;7;
69123;PMS5003;56232;53.384;-2.732;2022-10-31T16:15:48;7;6;
69123;PMS5003;56232;53.384;-2.732;2022-10-31T16:18:13;9;9;
69123;PMS5003;56232;53.384;-2.732;2022-10-31T16:20:38;9;9;
69123;PMS5003;56232;53.384;-2.732;2022-10-31T16:23:04;10;9;
69123;PMS5003;56232;53.384;-2.732;2022-10-31T16:25:33;7;7;
69123;PMS5003;56232;53.384;-2.732;2022-10-31T16:27:57;10;10;
69123;PMS5003;56232;53.384;-2.732;2022-10-31T16:30:27;6;6;
69123;PMS5003;56232;53.384;-2.732;2022-10-31T16:37:37;10;8;
69123;PMS5003;56232;53.384;-2.732;2022-10-31T16:40:02;12;12;
69123;PMS5003;56232;53.384;-2.732;2022-10-31T16:42:27;14;13;
69123;PMS5003;56232;53.384;-2.732;2022-10-31T16:44:53;9;9;
69123;PMS5003;56232;53.384;-2.732;2022-10-31T16:47:18;14;9;
69123;PMS5003;56232;53.384;-2.732;2022-10-31T16:49:46;16;9;